sensor_id;sensor_type;location;lat;lon;timestamp;P1;durP1;ratioP1;P2;durP2;ratioP2
15230;SDS011;32569;51.762;8.564;2023-06-22T00:01:17;23.87;;;21.83;;
15230;SDS011;32569;51.762;8.564;2023-06-22T00:03:47;25.17;;;22.97;;
15230;SDS011;32569;51.762;8.564;2023-06-22T00:06:14;25.07;;;23.07;;
15230;SDS011;32569;51.762;8.564;2023-06-22T00:08:41;27.10;;;24.77;;
15230;SDS011;32569;51.762;8.564;2023-06-22T00:11:10;25.40;;;23.20;;
15230;SDS011;32569;51.762;8.564;2023-06-22T00:13:37;26.90;;;24.47;;
15230;SDS011;32569;51.762;8.564;2023-06-22T00:16:06;26.27;;;23.97;;
15230;SDS011;32569;51.762;8.564;2023-06-22T00:18:32;25.37;;;23.27;;
15230;SDS011;32569;51.762;8.564;2023-06-22T00:20:59;26.43;;;24.33;;
15230;SDS011;32569;51.762;8.564;2023-06-22T00:23:26;28.17;;;25.73;;
15230;SDS011;32569;51.762;8.564;2023-06-22T00:25:53;26.87;;;24.53;;
15230;SDS011;32569;51.762;8.564;2023-06-22T00:28:19;27.20;;;24.73;;
15230;SDS011;32569;51.762;8.564;2023-06-22T00:30:48;25.43;;;23.20;;
15230;SDS011;32569;51.762;8.564;2023-06-22T00:33:16;26.70;;;24.47;;
15230;SDS011;32569;51.762;8.564;2023-06-22T00:35:46;25.60;;;23.27;;
15230;SDS011;32569;51.762;8.564;2023-06-22T00:38:12;26.60;;;23.97;;
15230;SDS011;32569;51.762;8.564;2023-06-22T00:40:39;27.67;;;25.17;;
15230;SDS011;32569;51.762;8.564;2023-06-22T00:43:06;26.93;;;24.57;;
15230;SDS011;32569;51.762;8.564;2023-06-22T00:45:32;25.90;;;23.67;;
15230;SDS011;32569;51.762;8.564;2023-06-22T00:47:59;28.03;;;25.43;;
15230;SDS011;32569;51.762;8.564;2023-06-22T00:50:28;27.23;;;24.73;;
15230;SDS011;32569;51.762;8.564;2023-06-22T00:53:03;27.07;;;24.77;;
15230;SDS011;32569;51.762;8.564;2023-06-22T00:55:33;27.27;;;24.87;;
15230;SDS011;32569;51.762;8.564;2023-06-22T00:58:02;28.27;;;25.63;;
15230;SDS011;32569;51.762;8.564;2023-06-22T01:00:30;27.27;;;24.93;;
15230;SDS011;32569;51.762;8.564;2023-06-22T01:02:57;27.57;;;25.13;;
15230;SDS011;32569;51.762;8.564;2023-06-22T01:05:24;27.70;;;25.03;;
15230;SDS011;32569;51.762;8.564;2023-06-22T01:08:04;28.60;;;26.20;;
15230;SDS011;32569;51.762;8.564;2023-06-22T01:10:36;26.50;;;24.20;;
15230;SDS011;32569;51.762;8.564;2023-06-22T01:13:12;27.57;;;24.93;;
15230;SDS011;32569;51.762;8.564;2023-06-22T01:15:47;27.37;;;24.97;;
15230;SDS011;32569;51.762;8.564;2023-06-22T01:18:19;25.97;;;23.77;;
15230;SDS011;32569;51.762;8.564;2023-06-22T01:20:50;27.70;;;25.37;;
15230;SDS011;32569;51.762;8.564;2023-06-22T01:23:25;27.10;;;24.57;;
15230;SDS011;32569;51.762;8.564;2023-06-22T01:25:57;27.17;;;24.77;;
15230;SDS011;32569;51.762;8.564;2023-06-22T01:28:45;27.40;;;24.97;;
15230;SDS011;32569;51.762;8.564;2023-06-22T01:31:13;25.47;;;23.17;;
15230;SDS011;32569;51.762;8.564;2023-06-22T01:33:45;26.73;;;24.13;;
15230;SDS011;32569;51.762;8.564;2023-06-22T01:36:16;27.20;;;24.50;;
15230;SDS011;32569;51.762;8.564;2023-06-22T01:38:44;25.87;;;23.37;;
15230;SDS011;32569;51.762;8.564;2023-06-22T01:41:12;27.00;;;24.50;;
15230;SDS011;32569;51.762;8.564;2023-06-22T01:43:39;25.60;;;23.17;;
15230;SDS011;32569;51.762;8.564;2023-06-22T01:46:08;25.73;;;23.40;;
15230;SDS011;32569;51.762;8.564;2023-06-22T01:48:34;25.77;;;23.23;;
15230;SDS011;32569;51.762;8.564;2023-06-22T01:51:01;26.70;;;24.20;;
15230;SDS011;32569;51.762;8.564;2023-06-22T01:53:28;27.20;;;24.37;;
15230;SDS011;32569;51.762;8.564;2023-06-22T01:55:55;25.20;;;23.00;;
15230;SDS011;32569;51.762;8.564;2023-06-22T01:58:23;26.70;;;24.20;;
15230;SDS011;32569;51.762;8.564;2023-06-22T02:00:53;25.10;;;22.90;;
15230;SDS011;32569;51.762;8.564;2023-06-22T02:03:27;25.63;;;23.23;;
15230;SDS011;32569;51.762;8.564;2023-06-22T02:05:58;24.87;;;22.80;;
15230;SDS011;32569;51.762;8.564;2023-06-22T02:08:30;25.97;;;23.67;;
15230;SDS011;32569;51.762;8.564;2023-06-22T02:11:01;25.67;;;23.37;;
15230;SDS011;32569;51.762;8.564;2023-06-22T02:13:28;25.13;;;22.77;;
15230;SDS011;32569;51.762;8.564;2023-06-22T02:15:56;25.70;;;23.30;;
15230;SDS011;32569;51.762;8.564;2023-06-22T02:18:23;25.53;;;23.30;;
15230;SDS011;32569;51.762;8.564;2023-06-22T02:20:51;26.40;;;23.90;;
15230;SDS011;32569;51.762;8.564;2023-06-22T02:23:18;24.60;;;22.40;;
15230;SDS011;32569;51.762;8.564;2023-06-22T02:25:45;26.20;;;23.87;;
15230;SDS011;32569;51.762;8.564;2023-06-22T02:28:11;25.10;;;22.77;;
15230;SDS011;32569;51.762;8.564;2023-06-22T02:30:41;25.17;;;22.67;;
15230;SDS011;32569;51.762;8.564;2023-06-22T02:33:08;23.60;;;21.70;;
15230;SDS011;32569;51.762;8.564;2023-06-22T02:35:35;24.77;;;22.50;;
15230;SDS011;32569;51.762;8.564;2023-06-22T02:38:03;23.00;;;21.07;;
15230;SDS011;32569;51.762;8.564;2023-06-22T02:40:30;24.13;;;21.97;;
15230;SDS011;32569;51.762;8.564;2023-06-22T02:42:57;23.57;;;21.53;;
15230;SDS011;32569;51.762;8.564;2023-06-22T02:45:27;23.57;;;21.63;;
15230;SDS011;32569;51.762;8.564;2023-06-22T02:47:54;22.60;;;20.50;;
15230;SDS011;32569;51.762;8.564;2023-06-22T02:50:21;22.03;;;20.13;;
15230;SDS011;32569;51.762;8.564;2023-06-22T02:52:47;23.00;;;21.07;;
15230;SDS011;32569;51.762;8.564;2023-06-22T02:55:15;22.97;;;20.97;;
15230;SDS011;32569;51.762;8.564;2023-06-22T02:57:42;22.53;;;20.40;;
15230;SDS011;32569;51.762;8.564;2023-06-22T03:00:17;22.50;;;20.50;;
15230;SDS011;32569;51.762;8.564;2023-06-22T03:02:43;24.27;;;22.20;;
15230;SDS011;32569;51.762;8.564;2023-06-22T03:05:10;22.73;;;20.47;;
15230;SDS011;32569;51.762;8.564;2023-06-22T03:07:41;24.67;;;22.10;;
15230;SDS011;32569;51.762;8.564;2023-06-22T03:10:08;24.13;;;22.03;;
15230;SDS011;32569;51.762;8.564;2023-06-22T03:12:37;24.80;;;22.50;;
15230;SDS011;32569;51.762;8.564;2023-06-22T03:15:04;24.53;;;22.10;;
15230;SDS011;32569;51.762;8.564;2023-06-22T03:17:32;23.40;;;21.40;;
15230;SDS011;32569;51.762;8.564;2023-06-22T03:19:59;22.83;;;20.93;;
15230;SDS011;32569;51.762;8.564;2023-06-22T03:22:25;23.93;;;21.63;;
15230;SDS011;32569;51.762;8.564;2023-06-22T03:24:52;24.37;;;22.20;;
15230;SDS011;32569;51.762;8.564;2023-06-22T03:27:19;24.60;;;22.30;;
15230;SDS011;32569;51.762;8.564;2023-06-22T03:29:47;24.10;;;21.97;;
15230;SDS011;32569;51.762;8.564;2023-06-22T03:32:13;24.33;;;22.23;;
15230;SDS011;32569;51.762;8.564;2023-06-22T03:34:40;23.80;;;21.60;;
15230;SDS011;32569;51.762;8.564;2023-06-22T03:37:12;23.53;;;21.40;;
15230;SDS011;32569;51.762;8.564;2023-06-22T03:39:39;21.50;;;19.57;;
15230;SDS011;32569;51.762;8.564;2023-06-22T03:42:06;23.37;;;21.07;;
15230;SDS011;32569;51.762;8.564;2023-06-22T03:44:33;21.93;;;19.87;;
15230;SDS011;32569;51.762;8.564;2023-06-22T03:47:02;22.37;;;20.37;;
15230;SDS011;32569;51.762;8.564;2023-06-22T03:49:31;24.10;;;21.37;;
15230;SDS011;32569;51.762;8.564;2023-06-22T03:51:58;23.67;;;21.47;;
15230;SDS011;32569;51.762;8.564;2023-06-22T03:54:25;21.90;;;19.90;;
15230;SDS011;32569;51.762;8.564;2023-06-22T03:56:52;23.83;;;21.67;;
15230;SDS011;32569;51.762;8.564;2023-06-22T03:59:19;23.07;;;21.03;;
15230;SDS011;32569;51.762;8.564;2023-06-22T04:01:46;22.50;;;20.47;;
15230;SDS011;32569;51.762;8.564;2023-06-22T04:04:14;23.07;;;21.03;;
15230;SDS011;32569;51.762;8.564;2023-06-22T04:06:40;23.37;;;21.20;;
15230;SDS011;32569;51.762;8.564;2023-06-22T04:09:07;22.30;;;20.17;;
15230;SDS011;32569;51.762;8.564;2023-06-22T04:11:33;23.20;;;20.90;;
15230;SDS011;32569;51.762;8.564;2023-06-22T04:14:00;22.10;;;20.20;;
15230;SDS011;32569;51.762;8.564;2023-06-22T04:16:27;21.27;;;19.47;;
15230;SDS011;32569;51.762;8.564;2023-06-22T04:18:53;23.00;;;20.90;;
15230;SDS011;32569;51.762;8.564;2023-06-22T04:21:21;23.10;;;21.00;;
15230;SDS011;32569;51.762;8.564;2023-06-22T04:23:48;21.60;;;19.70;;
15230;SDS011;32569;51.762;8.564;2023-06-22T04:26:14;22.93;;;20.97;;
15230;SDS011;32569;51.762;8.564;2023-06-22T04:28:41;21.50;;;19.57;;
15230;SDS011;32569;51.762;8.564;2023-06-22T04:31:08;20.63;;;18.87;;
15230;SDS011;32569;51.762;8.564;2023-06-22T04:33:34;21.67;;;19.57;;
15230;SDS011;32569;51.762;8.564;2023-06-22T04:36:05;23.20;;;20.90;;
15230;SDS011;32569;51.762;8.564;2023-06-22T04:38:33;23.07;;;20.93;;
15230;SDS011;32569;51.762;8.564;2023-06-22T04:41:00;21.63;;;19.50;;
15230;SDS011;32569;51.762;8.564;2023-06-22T04:43:28;21.43;;;19.43;;
15230;SDS011;32569;51.762;8.564;2023-06-22T04:45:55;21.43;;;19.40;;
15230;SDS011;32569;51.762;8.564;2023-06-22T04:48:28;21.20;;;18.40;;
15230;SDS011;32569;51.762;8.564;2023-06-22T04:50:57;21.37;;;19.23;;
15230;SDS011;32569;51.762;8.564;2023-06-22T04:53:29;21.47;;;19.30;;
15230;SDS011;32569;51.762;8.564;2023-06-22T04:55:57;21.70;;;19.50;;
15230;SDS011;32569;51.762;8.564;2023-06-22T04:58:24;23.03;;;20.67;;
15230;SDS011;32569;51.762;8.564;2023-06-22T05:00:52;20.90;;;18.63;;
15230;SDS011;32569;51.762;8.564;2023-06-22T05:03:21;20.00;;;18.23;;
15230;SDS011;32569;51.762;8.564;2023-06-22T05:05:50;20.73;;;18.83;;
15230;SDS011;32569;51.762;8.564;2023-06-22T05:08:17;21.03;;;18.90;;
15230;SDS011;32569;51.762;8.564;2023-06-22T05:10:44;21.43;;;19.33;;
15230;SDS011;32569;51.762;8.564;2023-06-22T05:13:12;19.47;;;17.77;;
15230;SDS011;32569;51.762;8.564;2023-06-22T05:15:38;21.27;;;19.27;;
15230;SDS011;32569;51.762;8.564;2023-06-22T05:18:05;20.27;;;18.20;;
15230;SDS011;32569;51.762;8.564;2023-06-22T05:20:32;21.10;;;19.00;;
15230;SDS011;32569;51.762;8.564;2023-06-22T05:23:01;19.67;;;17.77;;
15230;SDS011;32569;51.762;8.564;2023-06-22T05:25:27;19.93;;;18.03;;
15230;SDS011;32569;51.762;8.564;2023-06-22T05:27:54;18.63;;;17.03;;
15230;SDS011;32569;51.762;8.564;2023-06-22T05:30:23;20.53;;;18.27;;
15230;SDS011;32569;51.762;8.564;2023-06-22T05:32:49;19.10;;;17.20;;
15230;SDS011;32569;51.762;8.564;2023-06-22T05:35:17;19.00;;;17.17;;
15230;SDS011;32569;51.762;8.564;2023-06-22T05:37:44;18.47;;;16.73;;
15230;SDS011;32569;51.762;8.564;2023-06-22T05:40:11;18.13;;;16.23;;
15230;SDS011;32569;51.762;8.564;2023-06-22T05:42:38;18.73;;;17.03;;
15230;SDS011;32569;51.762;8.564;2023-06-22T05:45:05;17.77;;;16.27;;
15230;SDS011;32569;51.762;8.564;2023-06-22T05:47:33;18.27;;;16.63;;
15230;SDS011;32569;51.762;8.564;2023-06-22T05:50:00;18.17;;;16.73;;
15230;SDS011;32569;51.762;8.564;2023-06-22T05:52:31;18.00;;;16.47;;
15230;SDS011;32569;51.762;8.564;2023-06-22T05:54:58;18.60;;;17.00;;
15230;SDS011;32569;51.762;8.564;2023-06-22T05:57:24;18.77;;;16.97;;
15230;SDS011;32569;51.762;8.564;2023-06-22T05:59:51;18.90;;;17.20;;
15230;SDS011;32569;51.762;8.564;2023-06-22T06:02:18;18.23;;;16.73;;
15230;SDS011;32569;51.762;8.564;2023-06-22T06:04:46;19.33;;;17.43;;
15230;SDS011;32569;51.762;8.564;2023-06-22T06:07:16;19.57;;;17.87;;
15230;SDS011;32569;51.762;8.564;2023-06-22T06:09:42;19.07;;;17.43;;
15230;SDS011;32569;51.762;8.564;2023-06-22T06:12:09;18.83;;;17.23;;
15230;SDS011;32569;51.762;8.564;2023-06-22T06:14:36;19.50;;;17.90;;
15230;SDS011;32569;51.762;8.564;2023-06-22T06:17:02;19.77;;;17.93;;
15230;SDS011;32569;51.762;8.564;2023-06-22T06:19:29;19.43;;;17.83;;
15230;SDS011;32569;51.762;8.564;2023-06-22T06:21:57;19.97;;;18.27;;
15230;SDS011;32569;51.762;8.564;2023-06-22T06:24:24;20.83;;;19.03;;
15230;SDS011;32569;51.762;8.564;2023-06-22T06:26:53;18.93;;;17.13;;
15230;SDS011;32569;51.762;8.564;2023-06-22T06:29:20;18.53;;;16.80;;
15230;SDS011;32569;51.762;8.564;2023-06-22T06:31:48;19.43;;;17.73;;
15230;SDS011;32569;51.762;8.564;2023-06-22T06:34:15;19.53;;;17.57;;
15230;SDS011;32569;51.762;8.564;2023-06-22T06:36:41;18.83;;;17.13;;
15230;SDS011;32569;51.762;8.564;2023-06-22T06:39:10;18.97;;;17.37;;
15230;SDS011;32569;51.762;8.564;2023-06-22T06:41:37;19.57;;;17.87;;
15230;SDS011;32569;51.762;8.564;2023-06-22T06:44:03;18.90;;;17.20;;
15230;SDS011;32569;51.762;8.564;2023-06-22T06:46:30;20.43;;;18.63;;
15230;SDS011;32569;51.762;8.564;2023-06-22T06:48:57;18.93;;;17.23;;
15230;SDS011;32569;51.762;8.564;2023-06-22T06:51:23;20.63;;;18.73;;
15230;SDS011;32569;51.762;8.564;2023-06-22T06:53:50;18.87;;;17.27;;
15230;SDS011;32569;51.762;8.564;2023-06-22T06:56:18;19.20;;;17.30;;
15230;SDS011;32569;51.762;8.564;2023-06-22T06:58:44;20.10;;;18.30;;
15230;SDS011;32569;51.762;8.564;2023-06-22T07:01:11;19.20;;;17.60;;
15230;SDS011;32569;51.762;8.564;2023-06-22T07:03:37;18.67;;;17.07;;
15230;SDS011;32569;51.762;8.564;2023-06-22T07:06:04;19.23;;;17.53;;
15230;SDS011;32569;51.762;8.564;2023-06-22T07:08:31;18.20;;;16.70;;
15230;SDS011;32569;51.762;8.564;2023-06-22T07:10:57;19.90;;;18.30;;
15230;SDS011;32569;51.762;8.564;2023-06-22T07:13:27;18.63;;;17.00;;
15230;SDS011;32569;51.762;8.564;2023-06-22T07:15:54;18.63;;;16.90;;
15230;SDS011;32569;51.762;8.564;2023-06-22T07:18:24;19.73;;;17.83;;
15230;SDS011;32569;51.762;8.564;2023-06-22T07:20:51;19.63;;;17.73;;
15230;SDS011;32569;51.762;8.564;2023-06-22T07:23:20;20.70;;;19.00;;
15230;SDS011;32569;51.762;8.564;2023-06-22T07:25:46;18.73;;;17.13;;
15230;SDS011;32569;51.762;8.564;2023-06-22T07:28:14;18.27;;;16.73;;
15230;SDS011;32569;51.762;8.564;2023-06-22T07:30:42;19.70;;;17.97;;
15230;SDS011;32569;51.762;8.564;2023-06-22T07:33:08;18.87;;;17.27;;
15230;SDS011;32569;51.762;8.564;2023-06-22T07:35:35;18.43;;;16.93;;
15230;SDS011;32569;51.762;8.564;2023-06-22T07:38:02;17.47;;;15.97;;
15230;SDS011;32569;51.762;8.564;2023-06-22T07:40:28;19.30;;;17.57;;
15230;SDS011;32569;51.762;8.564;2023-06-22T07:42:55;18.47;;;16.97;;
15230;SDS011;32569;51.762;8.564;2023-06-22T07:45:21;18.33;;;16.83;;
15230;SDS011;32569;51.762;8.564;2023-06-22T07:47:50;18.33;;;16.63;;
15230;SDS011;32569;51.762;8.564;2023-06-22T07:50:16;19.30;;;17.60;;
15230;SDS011;32569;51.762;8.564;2023-06-22T07:52:43;18.90;;;17.10;;
15230;SDS011;32569;51.762;8.564;2023-06-22T07:55:09;19.93;;;18.17;;
15230;SDS011;32569;51.762;8.564;2023-06-22T07:57:36;20.03;;;18.07;;
15230;SDS011;32569;51.762;8.564;2023-06-22T08:00:03;19.70;;;17.90;;
15230;SDS011;32569;51.762;8.564;2023-06-22T08:02:37;17.87;;;16.27;;
15230;SDS011;32569;51.762;8.564;2023-06-22T08:05:05;19.00;;;17.40;;
15230;SDS011;32569;51.762;8.564;2023-06-22T08:07:33;18.33;;;16.73;;
15230;SDS011;32569;51.762;8.564;2023-06-22T08:10:00;16.90;;;15.50;;
15230;SDS011;32569;51.762;8.564;2023-06-22T08:12:27;18.00;;;16.43;;
15230;SDS011;32569;51.762;8.564;2023-06-22T08:14:56;17.83;;;16.23;;
15230;SDS011;32569;51.762;8.564;2023-06-22T08:17:25;17.10;;;15.67;;
15230;SDS011;32569;51.762;8.564;2023-06-22T08:19:52;18.03;;;16.33;;
15230;SDS011;32569;51.762;8.564;2023-06-22T08:22:20;17.73;;;16.07;;
15230;SDS011;32569;51.762;8.564;2023-06-22T08:24:46;16.57;;;15.17;;
15230;SDS011;32569;51.762;8.564;2023-06-22T08:27:13;18.70;;;16.87;;
15230;SDS011;32569;51.762;8.564;2023-06-22T08:29:46;17.93;;;16.00;;
15230;SDS011;32569;51.762;8.564;2023-06-22T08:32:12;16.83;;;15.43;;
15230;SDS011;32569;51.762;8.564;2023-06-22T08:34:39;15.63;;;14.23;;
15230;SDS011;32569;51.762;8.564;2023-06-22T08:37:07;16.77;;;15.23;;
15230;SDS011;32569;51.762;8.564;2023-06-22T08:39:35;15.13;;;13.93;;
15230;SDS011;32569;51.762;8.564;2023-06-22T08:42:02;15.93;;;14.43;;
15230;SDS011;32569;51.762;8.564;2023-06-22T08:44:28;14.93;;;13.47;;
15230;SDS011;32569;51.762;8.564;2023-06-22T08:46:55;15.10;;;13.73;;
15230;SDS011;32569;51.762;8.564;2023-06-22T08:49:22;13.50;;;12.40;;
15230;SDS011;32569;51.762;8.564;2023-06-22T08:51:48;13.57;;;12.40;;
15230;SDS011;32569;51.762;8.564;2023-06-22T08:54:17;12.33;;;11.33;;
15230;SDS011;32569;51.762;8.564;2023-06-22T08:56:45;11.77;;;10.77;;
15230;SDS011;32569;51.762;8.564;2023-06-22T08:59:11;12.10;;;11.10;;
15230;SDS011;32569;51.762;8.564;2023-06-22T09:01:38;10.70;;;9.83;;
15230;SDS011;32569;51.762;8.564;2023-06-22T09:04:05;11.43;;;10.30;;
15230;SDS011;32569;51.762;8.564;2023-06-22T09:06:34;10.40;;;9.50;;
15230;SDS011;32569;51.762;8.564;2023-06-22T09:09:03;10.13;;;9.27;;
15230;SDS011;32569;51.762;8.564;2023-06-22T09:11:29;10.23;;;9.43;;
15230;SDS011;32569;51.762;8.564;2023-06-22T09:13:57;10.47;;;9.57;;
15230;SDS011;32569;51.762;8.564;2023-06-22T09:16:24;10.93;;;10.03;;
15230;SDS011;32569;51.762;8.564;2023-06-22T09:18:50;10.73;;;9.73;;
15230;SDS011;32569;51.762;8.564;2023-06-22T09:21:17;9.77;;;8.93;;
15230;SDS011;32569;51.762;8.564;2023-06-22T09:23:44;9.83;;;9.03;;
15230;SDS011;32569;51.762;8.564;2023-06-22T09:26:15;9.33;;;8.53;;
15230;SDS011;32569;51.762;8.564;2023-06-22T09:28:41;9.17;;;8.47;;
15230;SDS011;32569;51.762;8.564;2023-06-22T09:31:09;9.83;;;9.03;;
15230;SDS011;32569;51.762;8.564;2023-06-22T09:33:36;9.70;;;8.80;;
15230;SDS011;32569;51.762;8.564;2023-06-22T09:36:03;9.13;;;8.33;;
15230;SDS011;32569;51.762;8.564;2023-06-22T09:38:35;9.87;;;9.07;;
15230;SDS011;32569;51.762;8.564;2023-06-22T09:41:11;10.13;;;9.23;;
15230;SDS011;32569;51.762;8.564;2023-06-22T09:43:37;11.63;;;10.63;;
15230;SDS011;32569;51.762;8.564;2023-06-22T09:46:04;10.77;;;9.97;;
15230;SDS011;32569;51.762;8.564;2023-06-22T09:48:32;9.80;;;9.00;;
15230;SDS011;32569;51.762;8.564;2023-06-22T09:50:58;10.13;;;9.43;;
15230;SDS011;32569;51.762;8.564;2023-06-22T09:53:25;10.87;;;10.00;;
15230;SDS011;32569;51.762;8.564;2023-06-22T09:55:52;10.90;;;10.10;;
15230;SDS011;32569;51.762;8.564;2023-06-22T09:58:19;10.07;;;9.30;;
15230;SDS011;32569;51.762;8.564;2023-06-22T10:00:46;10.30;;;9.40;;
15230;SDS011;32569;51.762;8.564;2023-06-22T10:03:13;11.03;;;10.13;;
15230;SDS011;32569;51.762;8.564;2023-06-22T10:05:39;11.20;;;10.30;;
15230;SDS011;32569;51.762;8.564;2023-06-22T10:08:06;11.07;;;10.13;;
15230;SDS011;32569;51.762;8.564;2023-06-22T10:10:36;11.20;;;10.30;;
15230;SDS011;32569;51.762;8.564;2023-06-22T10:13:03;10.93;;;10.03;;
15230;SDS011;32569;51.762;8.564;2023-06-22T10:15:36;10.63;;;9.53;;
15230;SDS011;32569;51.762;8.564;2023-06-22T10:18:03;10.13;;;9.23;;
15230;SDS011;32569;51.762;8.564;2023-06-22T10:20:30;10.03;;;9.23;;
15230;SDS011;32569;51.762;8.564;2023-06-22T10:22:57;10.23;;;9.43;;
15230;SDS011;32569;51.762;8.564;2023-06-22T10:25:23;9.33;;;8.60;;
15230;SDS011;32569;51.762;8.564;2023-06-22T10:27:50;9.37;;;8.57;;
15230;SDS011;32569;51.762;8.564;2023-06-22T10:30:17;10.00;;;9.20;;
15230;SDS011;32569;51.762;8.564;2023-06-22T10:32:45;9.23;;;8.53;;
15230;SDS011;32569;51.762;8.564;2023-06-22T10:35:11;8.13;;;7.53;;
15230;SDS011;32569;51.762;8.564;2023-06-22T10:37:40;8.27;;;7.57;;
15230;SDS011;32569;51.762;8.564;2023-06-22T10:40:08;8.43;;;7.73;;
15230;SDS011;32569;51.762;8.564;2023-06-22T10:42:35;8.60;;;7.90;;
15230;SDS011;32569;51.762;8.564;2023-06-22T10:45:02;7.77;;;6.97;;
15230;SDS011;32569;51.762;8.564;2023-06-22T10:47:29;8.10;;;7.50;;
15230;SDS011;32569;51.762;8.564;2023-06-22T10:49:57;7.87;;;7.27;;
15230;SDS011;32569;51.762;8.564;2023-06-22T10:52:24;7.88;;;7.18;;
15230;SDS011;32569;51.762;8.564;2023-06-22T10:54:50;8.52;;;7.82;;
15230;SDS011;32569;51.762;8.564;2023-06-22T10:57:17;7.93;;;7.28;;
15230;SDS011;32569;51.762;8.564;2023-06-22T10:59:44;8.00;;;7.20;;
15230;SDS011;32569;51.762;8.564;2023-06-22T11:02:10;8.10;;;7.13;;
15230;SDS011;32569;51.762;8.564;2023-06-22T11:04:37;7.95;;;7.25;;
15230;SDS011;32569;51.762;8.564;2023-06-22T11:07:06;8.03;;;7.20;;
15230;SDS011;32569;51.762;8.564;2023-06-22T11:09:32;7.78;;;7.20;;
15230;SDS011;32569;51.762;8.564;2023-06-22T11:11:59;7.75;;;7.15;;
15230;SDS011;32569;51.762;8.564;2023-06-22T11:14:26;8.13;;;7.53;;
15230;SDS011;32569;51.762;8.564;2023-06-22T11:16:52;8.03;;;7.40;;
15230;SDS011;32569;51.762;8.564;2023-06-22T11:19:19;7.93;;;7.33;;
15230;SDS011;32569;51.762;8.564;2023-06-22T11:21:45;8.93;;;8.13;;
15230;SDS011;32569;51.762;8.564;2023-06-22T11:24:13;8.17;;;7.53;;
15230;SDS011;32569;51.762;8.564;2023-06-22T11:26:40;8.33;;;7.63;;
15230;SDS011;32569;51.762;8.564;2023-06-22T11:29:07;8.43;;;7.73;;
15230;SDS011;32569;51.762;8.564;2023-06-22T11:31:34;8.87;;;8.17;;
15230;SDS011;32569;51.762;8.564;2023-06-22T11:34:00;8.03;;;7.40;;
15230;SDS011;32569;51.762;8.564;2023-06-22T11:36:28;8.80;;;8.00;;
15230;SDS011;32569;51.762;8.564;2023-06-22T11:38:57;8.20;;;7.60;;
15230;SDS011;32569;51.762;8.564;2023-06-22T11:41:25;8.90;;;8.23;;
15230;SDS011;32569;51.762;8.564;2023-06-22T11:43:52;9.63;;;8.80;;
15230;SDS011;32569;51.762;8.564;2023-06-22T11:46:19;9.80;;;8.87;;
15230;SDS011;32569;51.762;8.564;2023-06-22T11:48:46;8.88;;;8.15;;
15230;SDS011;32569;51.762;8.564;2023-06-22T11:51:12;9.43;;;8.65;;
15230;SDS011;32569;51.762;8.564;2023-06-22T11:53:39;9.27;;;8.48;;
15230;SDS011;32569;51.762;8.564;2023-06-22T11:56:05;10.50;;;9.60;;
15230;SDS011;32569;51.762;8.564;2023-06-22T11:58:33;9.88;;;9.07;;
15230;SDS011;32569;51.762;8.564;2023-06-22T12:01:03;9.87;;;9.03;;
15230;SDS011;32569;51.762;8.564;2023-06-22T12:03:30;9.85;;;9.00;;
15230;SDS011;32569;51.762;8.564;2023-06-22T12:05:59;11.50;;;10.50;;
15230;SDS011;32569;51.762;8.564;2023-06-22T12:08:26;10.48;;;9.57;;
15230;SDS011;32569;51.762;8.564;2023-06-22T12:10:52;10.00;;;8.98;;
15230;SDS011;32569;51.762;8.564;2023-06-22T12:13:19;10.17;;;9.27;;
15230;SDS011;32569;51.762;8.564;2023-06-22T12:15:47;10.65;;;9.65;;
15230;SDS011;32569;51.762;8.564;2023-06-22T12:18:14;11.07;;;10.10;;
15230;SDS011;32569;51.762;8.564;2023-06-22T12:20:41;10.67;;;9.77;;
15230;SDS011;32569;51.762;8.564;2023-06-22T12:23:07;9.70;;;8.90;;
15230;SDS011;32569;51.762;8.564;2023-06-22T12:25:34;11.40;;;10.40;;
15230;SDS011;32569;51.762;8.564;2023-06-22T12:28:00;12.40;;;11.30;;
15230;SDS011;32569;51.762;8.564;2023-06-22T12:30:27;12.53;;;11.43;;
15230;SDS011;32569;51.762;8.564;2023-06-22T12:32:55;12.30;;;11.33;;
15230;SDS011;32569;51.762;8.564;2023-06-22T12:35:22;13.30;;;12.10;;
15230;SDS011;32569;51.762;8.564;2023-06-22T12:37:48;13.53;;;12.33;;
15230;SDS011;32569;51.762;8.564;2023-06-22T12:40:15;13.80;;;12.60;;
15230;SDS011;32569;51.762;8.564;2023-06-22T12:42:42;13.93;;;12.83;;
15230;SDS011;32569;51.762;8.564;2023-06-22T12:45:09;15.03;;;13.63;;
15230;SDS011;32569;51.762;8.564;2023-06-22T12:47:36;16.93;;;15.33;;
15230;SDS011;32569;51.762;8.564;2023-06-22T12:50:04;18.43;;;16.73;;
15230;SDS011;32569;51.762;8.564;2023-06-22T12:52:32;21.03;;;19.03;;
15230;SDS011;32569;51.762;8.564;2023-06-22T12:54:58;22.27;;;20.17;;
15230;SDS011;32569;51.762;8.564;2023-06-22T12:57:25;21.83;;;19.73;;
15230;SDS011;32569;51.762;8.564;2023-06-22T12:59:52;22.47;;;20.47;;
15230;SDS011;32569;51.762;8.564;2023-06-22T13:02:18;25.53;;;23.13;;
15230;SDS011;32569;51.762;8.564;2023-06-22T13:04:45;26.33;;;23.97;;
15230;SDS011;32569;51.762;8.564;2023-06-22T13:07:13;27.90;;;25.37;;
15230;SDS011;32569;51.762;8.564;2023-06-22T13:09:40;29.63;;;27.03;;
15230;SDS011;32569;51.762;8.564;2023-06-22T13:12:07;30.70;;;28.00;;
15230;SDS011;32569;51.762;8.564;2023-06-22T13:14:34;34.47;;;31.30;;
15230;SDS011;32569;51.762;8.564;2023-06-22T13:17:00;32.57;;;29.53;;
15230;SDS011;32569;51.762;8.564;2023-06-22T13:19:27;32.40;;;29.37;;
15230;SDS011;32569;51.762;8.564;2023-06-22T13:21:57;33.10;;;30.00;;
15230;SDS011;32569;51.762;8.564;2023-06-22T13:24:25;32.73;;;29.70;;
15230;SDS011;32569;51.762;8.564;2023-06-22T13:26:52;33.40;;;30.30;;
15230;SDS011;32569;51.762;8.564;2023-06-22T13:29:18;34.57;;;31.17;;
15230;SDS011;32569;51.762;8.564;2023-06-22T13:31:45;31.07;;;28.17;;
15230;SDS011;32569;51.762;8.564;2023-06-22T13:34:12;31.73;;;28.73;;
15230;SDS011;32569;51.762;8.564;2023-06-22T13:36:38;31.47;;;28.47;;
15230;SDS011;32569;51.762;8.564;2023-06-22T13:39:05;31.90;;;28.70;;
15230;SDS011;32569;51.762;8.564;2023-06-22T13:41:33;33.77;;;30.57;;
15230;SDS011;32569;51.762;8.564;2023-06-22T13:43:59;32.43;;;29.20;;
15230;SDS011;32569;51.762;8.564;2023-06-22T13:46:26;33.43;;;30.13;;
15230;SDS011;32569;51.762;8.564;2023-06-22T13:48:54;34.37;;;31.07;;
15230;SDS011;32569;51.762;8.564;2023-06-22T13:51:20;35.57;;;31.97;;
15230;SDS011;32569;51.762;8.564;2023-06-22T13:53:47;35.00;;;31.50;;
15230;SDS011;32569;51.762;8.564;2023-06-22T13:56:13;34.67;;;31.07;;
15230;SDS011;32569;51.762;8.564;2023-06-22T13:58:41;34.40;;;31.03;;
15230;SDS011;32569;51.762;8.564;2023-06-22T14:01:08;35.33;;;32.03;;
15230;SDS011;32569;51.762;8.564;2023-06-22T14:03:41;36.40;;;32.90;;
15230;SDS011;32569;51.762;8.564;2023-06-22T14:06:10;36.03;;;32.43;;
15230;SDS011;32569;51.762;8.564;2023-06-22T14:08:37;34.57;;;31.37;;
15230;SDS011;32569;51.762;8.564;2023-06-22T14:11:03;34.73;;;31.23;;
15230;SDS011;32569;51.762;8.564;2023-06-22T14:13:30;36.03;;;32.37;;
15230;SDS011;32569;51.762;8.564;2023-06-22T14:15:58;34.73;;;31.33;;
15230;SDS011;32569;51.762;8.564;2023-06-22T14:18:25;34.97;;;31.50;;
15230;SDS011;32569;51.762;8.564;2023-06-22T14:20:51;34.97;;;31.40;;
15230;SDS011;32569;51.762;8.564;2023-06-22T14:23:18;34.63;;;31.23;;
15230;SDS011;32569;51.762;8.564;2023-06-22T14:25:47;35.57;;;31.77;;
15230;SDS011;32569;51.762;8.564;2023-06-22T14:28:14;37.33;;;33.43;;